sensor_id;sensor_type;location;lat;lon;timestamp;temperature;humidity
41310;DHT22;27057;51.438;-0.010;2022-12-18T00:01:32;1.10;99.90
41310;DHT22;27057;51.438;-0.010;2022-12-18T00:04:02;0.80;99.90
41310;DHT22;27057;51.438;-0.010;2022-12-18T00:06:31;0.70;99.90
41310;DHT22;27057;51.438;-0.010;2022-12-18T00:09:00;1.10;99.90
41310;DHT22;27057;51.438;-0.010;2022-12-18T00:11:29;0.90;99.90
41310;DHT22;27057;51.438;-0.010;2022-12-18T00:13:59;0.90;99.90
41310;DHT22;27057;51.438;-0.010;2022-12-18T00:16:27;0.90;99.90
41310;DHT22;27057;51.438;-0.010;2022-12-18T00:18:57;1.10;99.90
41310;DHT22;27057;51.438;-0.010;2022-12-18T00:21:26;0.70;99.90
41310;DHT22;27057;51.438;-0.010;2022-12-18T00:23:54;1.00;99.90
41310;DHT22;27057;51.438;-0.010;2022-12-18T00:26:25;0.80;99.90
41310;DHT22;27057;51.438;-0.010;2022-12-18T00:29:14;0.70;99.90
41310;DHT22;27057;51.438;-0.010;2022-12-18T00:31:43;1.10;99.90
41310;DHT22;27057;51.438;-0.010;2022-12-18T00:34:12;1.00;99.90
41310;DHT22;27057;51.438;-0.010;2022-12-18T00:36:40;0.80;99.90
41310;DHT22;27057;51.438;-0.010;2022-12-18T00:39:10;0.80;99.90
41310;DHT22;27057;51.438;-0.010;2022-12-18T00:41:38;0.80;99.90
41310;DHT22;27057;51.438;-0.010;2022-12-18T00:44:26;0.60;99.90
41310;DHT22;27057;51.438;-0.010;2022-12-18T00:46:53;0.50;99.90
41310;DHT22;27057;51.438;-0.010;2022-12-18T00:49:21;1.60;99.90
41310;DHT22;27057;51.438;-0.010;2022-12-18T00:51:49;0.40;99.90
41310;DHT22;27057;51.438;-0.010;2022-12-18T00:54:17;0.50;99.90
41310;DHT22;27057;51.438;-0.010;2022-12-18T00:56:44;0.70;99.90
41310;DHT22;27057;51.438;-0.010;2022-12-18T00:59:17;0.40;99.90
41310;DHT22;27057;51.438;-0.010;2022-12-18T01:01:46;0.50;99.90
41310;DHT22;27057;51.438;-0.010;2022-12-18T01:04:14;0.60;99.90
41310;DHT22;27057;51.438;-0.010;2022-12-18T01:06:47;0.40;99.90
41310;DHT22;27057;51.438;-0.010;2022-12-18T01:09:15;0.30;99.90
41310;DHT22;27057;51.438;-0.010;2022-12-18T01:11:42;0.40;99.90
41310;DHT22;27057;51.438;-0.010;2022-12-18T01:14:11;0.20;99.90
41310;DHT22;27057;51.438;-0.010;2022-12-18T01:16:38;0.40;99.90
41310;DHT22;27057;51.438;-0.010;2022-12-18T01:19:06;0.60;99.90
41310;DHT22;27057;51.438;-0.010;2022-12-18T01:21:33;0.40;99.90
41310;DHT22;27057;51.438;-0.010;2022-12-18T01:24:04;0.40;99.90
41310;DHT22;27057;51.438;-0.010;2022-12-18T01:26:31;0.30;99.90
41310;DHT22;27057;51.438;-0.010;2022-12-18T01:28:59;0.40;99.90
41310;DHT22;27057;51.438;-0.010;2022-12-18T01:31:28;0.10;99.90
41310;DHT22;27057;51.438;-0.010;2022-12-18T01:33:56;0.20;99.90
41310;DHT22;27057;51.438;-0.010;2022-12-18T01:36:35;-0.10;99.90
41310;DHT22;27057;51.438;-0.010;2022-12-18T01:39:14;0.10;99.90
41310;DHT22;27057;51.438;-0.010;2022-12-18T01:41:42;0.40;99.90
41310;DHT22;27057;51.438;-0.010;2022-12-18T01:47:40;0.20;99.90
41310;DHT22;27057;51.438;-0.010;2022-12-18T01:50:27;0.20;99.90
41310;DHT22;27057;51.438;-0.010;2022-12-18T01:53:00;0.00;99.90
41310;DHT22;27057;51.438;-0.010;2022-12-18T01:55:32;-0.10;99.90
41310;DHT22;27057;51.438;-0.010;2022-12-18T01:58:02;-0.10;99.90
41310;DHT22;27057;51.438;-0.010;2022-12-18T02:00:30;0.70;99.90
41310;DHT22;27057;51.438;-0.010;2022-12-18T02:02:58;0.30;99.90
41310;DHT22;27057;51.438;-0.010;2022-12-18T02:05:53;0.10;99.90
41310;DHT22;27057;51.438;-0.010;2022-12-18T02:09:02;-0.10;99.90
41310;DHT22;27057;51.438;-0.010;2022-12-18T02:12:10;-0.10;99.90
41310;DHT22;27057;51.438;-0.010;2022-12-18T02:17:36;-0.10;99.90
41310;DHT22;27057;51.438;-0.010;2022-12-18T02:20:28;-0.20;99.90
41310;DHT22;27057;51.438;-0.010;2022-12-18T02:28:54;1.80;99.90
41310;DHT22;27057;51.438;-0.010;2022-12-18T02:31:30;-0.20;99.90
41310;DHT22;27057;51.438;-0.010;2022-12-18T02:34:03;-0.30;99.90
41310;DHT22;27057;51.438;-0.010;2022-12-18T02:36:38;-0.20;99.90
41310;DHT22;27057;51.438;-0.010;2022-12-18T02:39:09;-0.40;99.90
41310;DHT22;27057;51.438;-0.010;2022-12-18T02:41:44;-0.30;99.90
41310;DHT22;27057;51.438;-0.010;2022-12-18T02:44:14;0.80;99.90
41310;DHT22;27057;51.438;-0.010;2022-12-18T02:46:48;-0.10;99.90
41310;DHT22;27057;51.438;-0.010;2022-12-18T02:58:17;-0.30;99.90
41310;DHT22;27057;51.438;-0.010;2022-12-18T03:00:53;-0.30;99.90
41310;DHT22;27057;51.438;-0.010;2022-12-18T03:04:01;-0.10;99.90
41310;DHT22;27057;51.438;-0.010;2022-12-18T03:06:41;-0.40;99.90
41310;DHT22;27057;51.438;-0.010;2022-12-18T03:09:16;-0.30;99.90
41310;DHT22;27057;51.438;-0.010;2022-12-18T03:11:48;-0.30;99.90
41310;DHT22;27057;51.438;-0.010;2022-12-18T03:14:38;-0.30;99.90
41310;DHT22;27057;51.438;-0.010;2022-12-18T03:17:08;-0.40;99.90
41310;DHT22;27057;51.438;-0.010;2022-12-18T03:19:37;-0.10;99.90
41310;DHT22;27057;51.438;-0.010;2022-12-18T03:22:07;-0.10;99.90
41310;DHT22;27057;51.438;-0.010;2022-12-18T03:24:45;0.00;99.90
41310;DHT22;27057;51.438;-0.010;2022-12-18T03:27:15;-0.20;99.90
41310;DHT22;27057;51.438;-0.010;2022-12-18T03:29:53;0.40;99.90
41310;DHT22;27057;51.438;-0.010;2022-12-18T03:32:31;0.30;99.90
41310;DHT22;27057;51.438;-0.010;2022-12-18T03:35:03;0.30;99.90
41310;DHT22;27057;51.438;-0.010;2022-12-18T03:37:38;-0.10;99.90
41310;DHT22;27057;51.438;-0.010;2022-12-18T03:40:08;0.60;99.90
41310;DHT22;27057;51.438;-0.010;2022-12-18T03:42:43;0.00;99.90
41310;DHT22;27057;51.438;-0.010;2022-12-18T03:45:42;0.10;99.90
41310;DHT22;27057;51.438;-0.010;2022-12-18T03:48:29;-0.10;99.90
41310;DHT22;27057;51.438;-0.010;2022-12-18T03:51:09;0.20;99.90
41310;DHT22;27057;51.438;-0.010;2022-12-18T03:53:52;0.10;99.90
41310;DHT22;27057;51.438;-0.010;2022-12-18T03:56:26;0.30;99.90
41310;DHT22;27057;51.438;-0.010;2022-12-18T03:58:57;0.30;99.90
41310;DHT22;27057;51.438;-0.010;2022-12-18T04:01:37;0.20;99.90
41310;DHT22;27057;51.438;-0.010;2022-12-18T04:04:06;0.00;99.90
41310;DHT22;27057;51.438;-0.010;2022-12-18T04:06:42;0.00;99.90
41310;DHT22;27057;51.438;-0.010;2022-12-18T04:09:12;0.10;99.90
41310;DHT22;27057;51.438;-0.010;2022-12-18T04:11:47;-0.20;99.90
41310;DHT22;27057;51.438;-0.010;2022-12-18T04:14:16;0.00;99.90
41310;DHT22;27057;51.438;-0.010;2022-12-18T04:19:18;-0.10;99.90
41310;DHT22;27057;51.438;-0.010;2022-12-18T04:21:48;-0.10;99.90
41310;DHT22;27057;51.438;-0.010;2022-12-18T04:26:52;-0.10;99.90
41310;DHT22;27057;51.438;-0.010;2022-12-18T04:29:25;0.00;99.90
41310;DHT22;27057;51.438;-0.010;2022-12-18T04:31:53;0.20;99.90
41310;DHT22;27057;51.438;-0.010;2022-12-18T04:34:22;0.20;99.90
41310;DHT22;27057;51.438;-0.010;2022-12-18T04:36:52;0.50;99.90
41310;DHT22;27057;51.438;-0.010;2022-12-18T04:39:25;0.40;99.90
41310;DHT22;27057;51.438;-0.010;2022-12-18T04:41:55;0.40;99.90
41310;DHT22;27057;51.438;-0.010;2022-12-18T04:44:23;0.40;99.90
41310;DHT22;27057;51.438;-0.010;2022-12-18T04:46:50;0.30;99.90
41310;DHT22;27057;51.438;-0.010;2022-12-18T04:49:18;0.70;99.90
41310;DHT22;27057;51.438;-0.010;2022-12-18T04:51:45;0.60;99.90
41310;DHT22;27057;51.438;-0.010;2022-12-18T04:54:12;0.60;99.90
41310;DHT22;27057;51.438;-0.010;2022-12-18T04:56:39;0.80;99.90
41310;DHT22;27057;51.438;-0.010;2022-12-18T04:59:07;0.80;99.90
41310;DHT22;27057;51.438;-0.010;2022-12-18T05:01:34;0.50;99.90
41310;DHT22;27057;51.438;-0.010;2022-12-18T05:04:03;0.90;99.90
41310;DHT22;27057;51.438;-0.010;2022-12-18T05:06:30;0.90;99.90
41310;DHT22;27057;51.438;-0.010;2022-12-18T05:08:58;1.00;99.90
41310;DHT22;27057;51.438;-0.010;2022-12-18T05:11:25;0.70;99.90
41310;DHT22;27057;51.438;-0.010;2022-12-18T05:13:52;0.90;99.90
41310;DHT22;27057;51.438;-0.010;2022-12-18T05:16:20;1.00;99.90
41310;DHT22;27057;51.438;-0.010;2022-12-18T05:18:47;1.10;99.90
41310;DHT22;27057;51.438;-0.010;2022-12-18T05:21:14;1.00;99.90
41310;DHT22;27057;51.438;-0.010;2022-12-18T05:23:42;1.30;99.90
41310;DHT22;27057;51.438;-0.010;2022-12-18T05:26:15;1.20;99.90
41310;DHT22;27057;51.438;-0.010;2022-12-18T05:28:43;1.30;99.90
41310;DHT22;27057;51.438;-0.010;2022-12-18T05:31:11;1.20;99.90
41310;DHT22;27057;51.438;-0.010;2022-12-18T05:33:38;1.30;99.90
41310;DHT22;27057;51.438;-0.010;2022-12-18T05:36:07;1.20;99.90
41310;DHT22;27057;51.438;-0.010;2022-12-18T05:38:36;1.40;99.90
41310;DHT22;27057;51.438;-0.010;2022-12-18T05:41:04;1.30;99.90
41310;DHT22;27057;51.438;-0.010;2022-12-18T05:43:37;1.30;99.90
41310;DHT22;27057;51.438;-0.010;2022-12-18T05:46:07;1.50;99.90
41310;DHT22;27057;51.438;-0.010;2022-12-18T05:48:34;1.50;99.90
41310;DHT22;27057;51.438;-0.010;2022-12-18T05:51:16;1.80;99.90
41310;DHT22;27057;51.438;-0.010;2022-12-18T05:53:43;1.50;99.90
41310;DHT22;27057;51.438;-0.010;2022-12-18T05:56:14;1.50;99.90
41310;DHT22;27057;51.438;-0.010;2022-12-18T05:58:42;1.40;99.90
41310;DHT22;27057;51.438;-0.010;2022-12-18T06:01:13;1.60;99.90
41310;DHT22;27057;51.438;-0.010;2022-12-18T06:03:41;1.80;99.90
41310;DHT22;27057;51.438;-0.010;2022-12-18T06:06:17;2.00;99.90
41310;DHT22;27057;51.438;-0.010;2022-12-18T06:08:44;1.70;99.90
41310;DHT22;27057;51.438;-0.010;2022-12-18T06:11:15;1.80;99.90
41310;DHT22;27057;51.438;-0.010;2022-12-18T06:13:43;1.50;99.90
41310;DHT22;27057;51.438;-0.010;2022-12-18T06:16:10;1.60;99.90
41310;DHT22;27057;51.438;-0.010;2022-12-18T06:18:38;1.60;99.90
41310;DHT22;27057;51.438;-0.010;2022-12-18T06:21:05;1.60;99.90
41310;DHT22;27057;51.438;-0.010;2022-12-18T06:23:33;1.60;99.90
41310;DHT22;27057;51.438;-0.010;2022-12-18T06:26:05;1.50;99.90
41310;DHT22;27057;51.438;-0.010;2022-12-18T06:28:32;1.60;99.90
41310;DHT22;27057;51.438;-0.010;2022-12-18T06:30:59;1.60;99.90
41310;DHT22;27057;51.438;-0.010;2022-12-18T06:33:27;1.70;99.90
41310;DHT22;27057;51.438;-0.010;2022-12-18T06:36:00;1.70;99.90
41310;DHT22;27057;51.438;-0.010;2022-12-18T06:38:28;1.70;99.90
41310;DHT22;27057;51.438;-0.010;2022-12-18T06:40:55;1.70;99.90
41310;DHT22;27057;51.438;-0.010;2022-12-18T06:43:22;1.80;99.90
41310;DHT22;27057;51.438;-0.010;2022-12-18T06:45:50;1.80;99.90
41310;DHT22;27057;51.438;-0.010;2022-12-18T06:48:19;1.80;99.90
41310;DHT22;27057;51.438;-0.010;2022-12-18T06:50:47;1.80;99.90
41310;DHT22;27057;51.438;-0.010;2022-12-18T06:53:14;1.80;99.90
41310;DHT22;27057;51.438;-0.010;2022-12-18T06:55:42;1.80;99.90
41310;DHT22;27057;51.438;-0.010;2022-12-18T06:58:09;1.80;99.90
41310;DHT22;27057;51.438;-0.010;2022-12-18T07:00:37;1.80;99.90
41310;DHT22;27057;51.438;-0.010;2022-12-18T07:03:05;1.80;99.90
41310;DHT22;27057;51.438;-0.010;2022-12-18T07:05:32;1.80;99.90
41310;DHT22;27057;51.438;-0.010;2022-12-18T07:07:59;1.80;99.90
41310;DHT22;27057;51.438;-0.010;2022-12-18T07:10:26;1.90;99.90
41310;DHT22;27057;51.438;-0.010;2022-12-18T07:12:54;1.90;99.90
41310;DHT22;27057;51.438;-0.010;2022-12-18T07:15:21;1.90;99.90
41310;DHT22;27057;51.438;-0.010;2022-12-18T07:17:48;1.90;99.90
41310;DHT22;27057;51.438;-0.010;2022-12-18T07:20:16;2.20;99.90
41310;DHT22;27057;51.438;-0.010;2022-12-18T07:22:43;1.90;99.90
41310;DHT22;27057;51.438;-0.010;2022-12-18T07:25:10;1.90;99.90
41310;DHT22;27057;51.438;-0.010;2022-12-18T07:27:37;2.00;99.90
41310;DHT22;27057;51.438;-0.010;2022-12-18T07:32:32;1.90;99.90
41310;DHT22;27057;51.438;-0.010;2022-12-18T07:35:00;1.90;99.90
41310;DHT22;27057;51.438;-0.010;2022-12-18T07:37:27;1.90;99.90
41310;DHT22;27057;51.438;-0.010;2022-12-18T07:39:55;2.70;99.90
41310;DHT22;27057;51.438;-0.010;2022-12-18T07:42:22;1.90;99.90
41310;DHT22;27057;51.438;-0.010;2022-12-18T07:44:59;2.00;99.90
41310;DHT22;27057;51.438;-0.010;2022-12-18T07:47:28;2.00;99.90
41310;DHT22;27057;51.438;-0.010;2022-12-18T07:49:56;1.90;99.90
41310;DHT22;27057;51.438;-0.010;2022-12-18T07:52:24;1.80;99.90
41310;DHT22;27057;51.438;-0.010;2022-12-18T07:54:52;2.00;99.90
41310;DHT22;27057;51.438;-0.010;2022-12-18T07:57:19;2.00;99.90
41310;DHT22;27057;51.438;-0.010;2022-12-18T08:00:07;2.00;99.90
41310;DHT22;27057;51.438;-0.010;2022-12-18T08:02:38;2.10;99.90
41310;DHT22;27057;51.438;-0.010;2022-12-18T08:05:05;1.80;99.90
41310;DHT22;27057;51.438;-0.010;2022-12-18T08:07:33;2.00;99.90
41310;DHT22;27057;51.438;-0.010;2022-12-18T08:10:00;2.00;99.90
41310;DHT22;27057;51.438;-0.010;2022-12-18T08:12:27;2.00;99.90
41310;DHT22;27057;51.438;-0.010;2022-12-18T08:14:54;2.00;99.90
41310;DHT22;27057;51.438;-0.010;2022-12-18T08:17:22;2.00;99.90
41310;DHT22;27057;51.438;-0.010;2022-12-18T08:19:49;2.80;99.90
41310;DHT22;27057;51.438;-0.010;2022-12-18T08:22:16;2.00;99.90
41310;DHT22;27057;51.438;-0.010;2022-12-18T08:24:44;2.00;99.90
41310;DHT22;27057;51.438;-0.010;2022-12-18T08:27:11;2.10;99.90
41310;DHT22;27057;51.438;-0.010;2022-12-18T08:29:55;2.00;99.90
41310;DHT22;27057;51.438;-0.010;2022-12-18T08:32:23;2.10;99.90
41310;DHT22;27057;51.438;-0.010;2022-12-18T08:34:51;2.20;99.90
41310;DHT22;27057;51.438;-0.010;2022-12-18T08:37:18;2.10;99.90
41310;DHT22;27057;51.438;-0.010;2022-12-18T08:39:45;2.10;99.90
41310;DHT22;27057;51.438;-0.010;2022-12-18T08:42:12;2.10;99.90
41310;DHT22;27057;51.438;-0.010;2022-12-18T08:44:59;2.40;99.90
41310;DHT22;27057;51.438;-0.010;2022-12-18T08:47:26;2.20;99.90
41310;DHT22;27057;51.438;-0.010;2022-12-18T08:49:53;2.50;99.90
41310;DHT22;27057;51.438;-0.010;2022-12-18T08:52:24;2.40;99.90
41310;DHT22;27057;51.438;-0.010;2022-12-18T08:54:51;2.60;99.90
41310;DHT22;27057;51.438;-0.010;2022-12-18T08:57:19;2.50;99.90
41310;DHT22;27057;51.438;-0.010;2022-12-18T08:59:49;2.40;99.90
41310;DHT22;27057;51.438;-0.010;2022-12-18T09:02:16;3.90;99.90
41310;DHT22;27057;51.438;-0.010;2022-12-18T09:04:46;2.60;99.90
41310;DHT22;27057;51.438;-0.010;2022-12-18T09:07:21;3.80;99.90
41310;DHT22;27057;51.438;-0.010;2022-12-18T09:09:48;2.50;99.90
41310;DHT22;27057;51.438;-0.010;2022-12-18T09:12:16;2.50;99.90
41310;DHT22;27057;51.438;-0.010;2022-12-18T09:14:43;2.60;99.90
41310;DHT22;27057;51.438;-0.010;2022-12-18T09:17:10;2.60;99.90
41310;DHT22;27057;51.438;-0.010;2022-12-18T09:19:38;2.60;99.90
41310;DHT22;27057;51.438;-0.010;2022-12-18T09:22:05;2.90;99.90
41310;DHT22;27057;51.438;-0.010;2022-12-18T09:24:32;3.40;99.90
41310;DHT22;27057;51.438;-0.010;2022-12-18T09:27:00;3.10;99.90
41310;DHT22;27057;51.438;-0.010;2022-12-18T09:29:27;2.40;99.90
41310;DHT22;27057;51.438;-0.010;2022-12-18T09:31:55;2.60;99.90
41310;DHT22;27057;51.438;-0.010;2022-12-18T09:34:23;2.60;99.90
41310;DHT22;27057;51.438;-0.010;2022-12-18T09:36:50;2.80;99.90
41310;DHT22;27057;51.438;-0.010;2022-12-18T09:41:54;2.60;99.90
41310;DHT22;27057;51.438;-0.010;2022-12-18T09:44:27;2.70;99.90
41310;DHT22;27057;51.438;-0.010;2022-12-18T09:49:30;2.90;99.90
41310;DHT22;27057;51.438;-0.010;2022-12-18T09:52:23;3.20;99.90
41310;DHT22;27057;51.438;-0.010;2022-12-18T09:55:14;2.60;99.90
41310;DHT22;27057;51.438;-0.010;2022-12-18T09:57:51;2.70;99.90
41310;DHT22;27057;51.438;-0.010;2022-12-18T10:00:21;2.90;99.90
41310;DHT22;27057;51.438;-0.010;2022-12-18T10:02:52;2.80;99.90
41310;DHT22;27057;51.438;-0.010;2022-12-18T10:09:09;2.90;99.90
41310;DHT22;27057;51.438;-0.010;2022-12-18T10:16:35;2.80;99.90
41310;DHT22;27057;51.438;-0.010;2022-12-18T10:19:51;2.90;99.90
41310;DHT22;27057;51.438;-0.010;2022-12-18T10:22:22;3.00;99.90
41310;DHT22;27057;51.438;-0.010;2022-12-18T10:27:28;3.10;99.90
41310;DHT22;27057;51.438;-0.010;2022-12-18T10:29:57;3.20;99.90
41310;DHT22;27057;51.438;-0.010;2022-12-18T10:32:27;3.30;99.90
41310;DHT22;27057;51.438;-0.010;2022-12-18T10:34:57;3.20;99.90
41310;DHT22;27057;51.438;-0.010;2022-12-18T10:37:29;3.60;99.90
41310;DHT22;27057;51.438;-0.010;2022-12-18T10:40:12;3.40;99.90
41310;DHT22;27057;51.438;-0.010;2022-12-18T10:43:09;3.20;99.90
41310;DHT22;27057;51.438;-0.010;2022-12-18T10:45:37;3.80;99.90
41310;DHT22;27057;51.438;-0.010;2022-12-18T10:48:18;4.10;99.90
41310;DHT22;27057;51.438;-0.010;2022-12-18T10:50:49;3.50;99.90
41310;DHT22;27057;51.438;-0.010;2022-12-18T10:53:41;3.50;99.90
41310;DHT22;27057;51.438;-0.010;2022-12-18T10:58:38;3.40;99.90
41310;DHT22;27057;51.438;-0.010;2022-12-18T11:03:39;3.50;99.90
41310;DHT22;27057;51.438;-0.010;2022-12-18T11:06:16;3.50;99.90
41310;DHT22;27057;51.438;-0.010;2022-12-18T11:08:57;3.80;99.90
41310;DHT22;27057;51.438;-0.010;2022-12-18T11:11:25;3.70;99.90
41310;DHT22;27057;51.438;-0.010;2022-12-18T11:16:33;3.60;99.90
41310;DHT22;27057;51.438;-0.010;2022-12-18T11:19:32;3.70;99.90
41310;DHT22;27057;51.438;-0.010;2022-12-18T11:22:01;3.10;99.90
41310;DHT22;27057;51.438;-0.010;2022-12-18T11:24:36;3.60;99.90
41310;DHT22;27057;51.438;-0.010;2022-12-18T11:27:05;4.10;99.90
41310;DHT22;27057;51.438;-0.010;2022-12-18T11:29:36;4.40;99.90
41310;DHT22;27057;51.438;-0.010;2022-12-18T11:32:34;3.90;99.90
41310;DHT22;27057;51.438;-0.010;2022-12-18T11:35:28;3.70;99.90
41310;DHT22;27057;51.438;-0.010;2022-12-18T11:38:06;3.80;99.90
41310;DHT22;27057;51.438;-0.010;2022-12-18T11:40:40;4.00;99.90
41310;DHT22;27057;51.438;-0.010;2022-12-18T11:43:19;4.10;99.90
41310;DHT22;27057;51.438;-0.010;2022-12-18T11:46:00;4.20;99.90
41310;DHT22;27057;51.438;-0.010;2022-12-18T11:49:01;4.00;99.90
41310;DHT22;27057;51.438;-0.010;2022-12-18T11:51:41;4.00;99.90
41310;DHT22;27057;51.438;-0.010;2022-12-18T11:54:13;3.90;99.90
41310;DHT22;27057;51.438;-0.010;2022-12-18T11:57:13;4.00;99.90
41310;DHT22;27057;51.438;-0.010;2022-12-18T11:59:54;4.10;99.90
41310;DHT22;27057;51.438;-0.010;2022-12-18T12:16:04;3.80;99.90
41310;DHT22;27057;51.438;-0.010;2022-12-18T12:32:27;4.70;99.90
41310;DHT22;27057;51.438;-0.010;2022-12-18T12:35:11;4.40;99.90
41310;DHT22;27057;51.438;-0.010;2022-12-18T12:38:02;4.10;99.90
41310;DHT22;27057;51.438;-0.010;2022-12-18T12:40:36;5.10;99.90
41310;DHT22;27057;51.438;-0.010;2022-12-18T12:43:42;3.90;99.90
41310;DHT22;27057;51.438;-0.010;2022-12-18T12:46:21;4.20;99.90
41310;DHT22;27057;51.438;-0.010;2022-12-18T12:48:58;4.20;99.90
41310;DHT22;27057;51.438;-0.010;2022-12-18T12:51:33;3.90;99.90
41310;DHT22;27057;51.438;-0.010;2022-12-18T12:54:05;3.60;99.90
41310;DHT22;27057;51.438;-0.010;2022-12-18T12:56:42;4.10;99.90
41310;DHT22;27057;51.438;-0.010;2022-12-18T12:59:19;3.90;99.90
41310;DHT22;27057;51.438;-0.010;2022-12-18T13:02:10;4.00;99.90
41310;DHT22;27057;51.438;-0.010;2022-12-18T13:04:49;3.80;99.90
41310;DHT22;27057;51.438;-0.010;2022-12-18T13:07:40;4.00;99.90
41310;DHT22;27057;51.438;-0.010;2022-12-18T13:13:08;3.80;99.90
41310;DHT22;27057;51.438;-0.010;2022-12-18T13:15:46;3.90;99.90
41310;DHT22;27057;51.438;-0.010;2022-12-18T13:18:20;4.00;99.90
41310;DHT22;27057;51.438;-0.010;2022-12-18T13:21:04;4.10;99.90
41310;DHT22;27057;51.438;-0.010;2022-12-18T13:23:36;3.90;99.90
41310;DHT22;27057;51.438;-0.010;2022-12-18T13:34:26;3.90;99.90
41310;DHT22;27057;51.438;-0.010;2022-12-18T13:37:34;4.00;99.90
41310;DHT22;27057;51.438;-0.010;2022-12-18T13:39:45;4.30;99.90
41310;DHT22;27057;51.438;-0.010;2022-12-18T13:45:00;3.90;99.90
41310;DHT22;27057;51.438;-0.010;2022-12-18T13:47:36;4.00;99.90
41310;DHT22;27057;51.438;-0.010;2022-12-18T13:50:31;3.90;99.90
41310;DHT22;27057;51.438;-0.010;2022-12-18T13:53:03;3.90;99.90
41310;DHT22;27057;51.438;-0.010;2022-12-18T13:55:32;3.90;99.90
41310;DHT22;27057;51.438;-0.010;2022-12-18T13:58:06;3.70;99.90
41310;DHT22;27057;51.438;-0.010;2022-12-18T14:00:33;3.90;99.90
41310;DHT22;27057;51.438;-0.010;2022-12-18T14:03:01;3.70;99.90
41310;DHT22;27057;51.438;-0.010;2022-12-18T14:05:34;3.80;99.90
41310;DHT22;27057;51.438;-0.010;2022-12-18T14:08:08;4.00;99.90
41310;DHT22;27057;51.438;-0.010;2022-12-18T14:10:41;3.80;99.90
41310;DHT22;27057;51.438;-0.010;2022-12-18T14:13:22;3.90;99.90
41310;DHT22;27057;51.438;-0.010;2022-12-18T14:15:51;3.90;99.90
41310;DHT22;27057;51.438;-0.010;2022-12-18T14:18:53;4.10;99.90
41310;DHT22;27057;51.438;-0.010;2022-12-18T14:21:30;3.90;99.90
41310;DHT22;27057;51.438;-0.010;2022-12-18T14:26:44;3.90;99.90
41310;DHT22;27057;51.438;-0.010;2022-12-18T14:29:26;4.10;99.90
41310;DHT22;27057;51.438;-0.010;2022-12-18T14:32:11;3.90;99.90
41310;DHT22;27057;51.438;-0.010;2022-12-18T14:34:51;3.90;99.90
41310;DHT22;27057;51.438;-0.010;2022-12-18T14:37:26;4.00;99.90
41310;DHT22;27057;51.438;-0.010;2022-12-18T14:39:58;4.00;99.90
41310;DHT22;27057;51.438;-0.010;2022-12-18T14:42:33;3.90;99.90
41310;DHT22;27057;51.438;-0.010;2022-12-18T14:51:01;4.00;99.90
41310;DHT22;27057;51.438;-0.010;2022-12-18T14:53:39;4.00;99.90
41310;DHT22;27057;51.438;-0.010;2022-12-18T14:56:32;4.00;99.90
41310;DHT22;27057;51.438;-0.010;2022-12-18T15:01:33;4.20;99.90
41310;DHT22;27057;51.438;-0.010;2022-12-18T15:04:03;4.10;99.90
41310;DHT22;27057;51.438;-0.010;2022-12-18T15:06:37;4.00;99.90
41310;DHT22;27057;51.438;-0.010;2022-12-18T15:09:23;4.00;99.90
41310;DHT22;27057;51.438;-0.010;2022-12-18T15:11:57;4.50;99.90
41310;DHT22;27057;51.438;-0.010;2022-12-18T15:17:13;4.10;99.90
41310;DHT22;27057;51.438;-0.010;2022-12-18T15:19:43;4.10;99.90
41310;DHT22;27057;51.438;-0.010;2022-12-18T15:22:33;4.40;99.90
41310;DHT22;27057;51.438;-0.010;2022-12-18T15:25:03;4.20;99.90
41310;DHT22;27057;51.438;-0.010;2022-12-18T15:27:35;4.10;99.90
41310;DHT22;27057;51.438;-0.010;2022-12-18T15:32:40;4.30;99.90
41310;DHT22;27057;51.438;-0.010;2022-12-18T15:37:38;4.10;99.90
41310;DHT22;27057;51.438;-0.010;2022-12-18T15:40:08;4.40;99.90
41310;DHT22;27057;51.438;-0.010;2022-12-18T15:42:39;4.40;99.90
41310;DHT22;27057;51.438;-0.010;2022-12-18T15:45:24;4.20;99.90
41310;DHT22;27057;51.438;-0.010;2022-12-18T15:47:52;4.40;99.90
41310;DHT22;27057;51.438;-0.010;2022-12-18T15:50:21;4.30;99.90
41310;DHT22;27057;51.438;-0.010;2022-12-18T15:52:51;5.10;99.90
41310;DHT22;27057;51.438;-0.010;2022-12-18T15:55:23;4.60;99.90
41310;DHT22;27057;51.438;-0.010;2022-12-18T15:58:10;4.60;99.90
41310;DHT22;27057;51.438;-0.010;2022-12-18T16:00:40;4.70;99.90
41310;DHT22;27057;51.438;-0.010;2022-12-18T16:03:11;4.60;99.90
41310;DHT22;27057;51.438;-0.010;2022-12-18T16:05:38;5.90;99.90
41310;DHT22;27057;51.438;-0.010;2022-12-18T16:08:06;4.60;99.90
41310;DHT22;27057;51.438;-0.010;2022-12-18T16:10:34;4.70;99.90
41310;DHT22;27057;51.438;-0.010;2022-12-18T16:13:02;4.70;99.90
41310;DHT22;27057;51.438;-0.010;2022-12-18T16:15:29;4.60;99.90
41310;DHT22;27057;51.438;-0.010;2022-12-18T16:17:57;5.00;99.90
41310;DHT22;27057;51.438;-0.010;2022-12-18T16:20:24;5.10;99.90
41310;DHT22;27057;51.438;-0.010;2022-12-18T16:22:51;5.10;99.90
41310;DHT22;27057;51.438;-0.010;2022-12-18T16:25:24;5.10;99.90
41310;DHT22;27057;51.438;-0.010;2022-12-18T16:27:54;5.30;99.90
41310;DHT22;27057;51.438;-0.010;2022-12-18T16:30:29;5.10;99.90
41310;DHT22;27057;51.438;-0.010;2022-12-18T16:33:05;5.20;99.90
41310;DHT22;27057;51.438;-0.010;2022-12-18T16:35:33;5.20;99.90
41310;DHT22;27057;51.438;-0.010;2022-12-18T16:38:01;6.70;99.90
41310;DHT22;27057;51.438;-0.010;2022-12-18T16:40:31;6.40;99.90
41310;DHT22;27057;51.438;-0.010;2022-12-18T16:42:58;5.80;99.90
41310;DHT22;27057;51.438;-0.010;2022-12-18T16:48:00;5.40;99.90
41310;DHT22;27057;51.438;-0.010;2022-12-18T16:50:27;5.30;99.90
41310;DHT22;27057;51.438;-0.010;2022-12-18T16:52:54;5.50;99.90
41310;DHT22;27057;51.438;-0.010;2022-12-18T16:55:22;5.70;99.90
41310;DHT22;27057;51.438;-0.010;2022-12-18T16:57:49;5.60;99.90
41310;DHT22;27057;51.438;-0.010;2022-12-18T17:00:16;5.80;99.90
41310;DHT22;27057;51.438;-0.010;2022-12-18T17:02:44;5.80;99.90
41310;DHT22;27057;51.438;-0.010;2022-12-18T17:05:13;5.50;99.90
41310;DHT22;27057;51.438;-0.010;2022-12-18T17:07:40;5.90;99.90
41310;DHT22;27057;51.438;-0.010;2022-12-18T17:10:08;5.60;99.90
41310;DHT22;27057;51.438;-0.010;2022-12-18T17:12:36;5.80;99.90
41310;DHT22;27057;51.438;-0.010;2022-12-18T17:15:03;6.10;99.90
41310;DHT22;27057;51.438;-0.010;2022-12-18T17:17:31;5.90;99.90
41310;DHT22;27057;51.438;-0.010;2022-12-18T17:19:59;5.90;99.90
41310;DHT22;27057;51.438;-0.010;2022-12-18T17:22:26;6.40;99.90
41310;DHT22;27057;51.438;-0.010;2022-12-18T17:24:54;6.20;99.90
41310;DHT22;27057;51.438;-0.010;2022-12-18T17:27:21;6.20;99.90
41310;DHT22;27057;51.438;-0.010;2022-12-18T17:29:48;6.30;99.90
41310;DHT22;27057;51.438;-0.010;2022-12-18T17:32:16;6.70;99.90
41310;DHT22;27057;51.438;-0.010;2022-12-18T17:34:44;6.10;99.90
41310;DHT22;27057;51.438;-0.010;2022-12-18T17:37:11;6.10;99.90
41310;DHT22;27057;51.438;-0.010;2022-12-18T17:39:39;6.70;99.90
41310;DHT22;27057;51.438;-0.010;2022-12-18T17:42:07;6.30;99.90
41310;DHT22;27057;51.438;-0.010;2022-12-18T17:44:41;6.60;99.90
41310;DHT22;27057;51.438;-0.010;2022-12-18T17:47:08;6.90;99.90
41310;DHT22;27057;51.438;-0.010;2022-12-18T17:49:38;6.60;99.90
41310;DHT22;27057;51.438;-0.010;2022-12-18T17:52:05;6.70;99.90
41310;DHT22;27057;51.438;-0.010;2022-12-18T17:54:32;6.50;99.90
41310;DHT22;27057;51.438;-0.010;2022-12-18T17:57:01;6.60;99.90
41310;DHT22;27057;51.438;-0.010;2022-12-18T17:59:28;6.60;99.90